createdAt,value
2023-08-17T00:02:00.874Z,6.38
2023-08-17T00:04:48.523Z,6.95
2023-08-17T00:07:36.616Z,6.07
2023-08-17T00:10:24.336Z,6.13
2023-08-17T00:13:13.057Z,7.00
2023-08-17T00:16:00.977Z,6.40
2023-08-17T00:18:50.318Z,7.10
2023-08-17T00:21:38.988Z,5.72
2023-08-17T00:24:26.656Z,6.85
2023-08-17T00:27:14.338Z,6.63
2023-08-17T00:30:01.990Z,6.55
2023-08-17T00:32:49.827Z,7.68
2023-08-17T00:35:38.965Z,6.90
2023-08-17T00:38:26.832Z,6.53
2023-08-17T00:41:14.741Z,6.15
2023-08-17T00:44:02.845Z,6.50
2023-08-17T00:46:50.749Z,6.35
2023-08-17T00:49:38.427Z,6.22
2023-08-17T00:52:27.733Z,6.07
2023-08-17T00:55:15.483Z,5.95
2023-08-17T00:58:03.259Z,6.65
2023-08-17T01:00:51.454Z,6.03
2023-08-17T01:03:39.673Z,6.90
2023-08-17T01:06:27.658Z,7.28
2023-08-17T01:09:16.826Z,6.65
2023-08-17T01:12:16.622Z,6.18
2023-08-17T01:15:11.159Z,6.10
2023-08-17T01:18:04.157Z,5.90
2023-08-17T01:20:52.379Z,5.93
2023-08-17T01:23:41.570Z,6.18
2023-08-17T01:26:29.199Z,7.18
2023-08-17T01:29:17.976Z,6.57
2023-08-17T01:32:12.393Z,5.80
2023-08-17T01:35:06.762Z,6.18
2023-08-17T01:37:57.688Z,6.05
2023-08-17T01:40:48.033Z,6.63
2023-08-17T01:43:36.822Z,6.53
2023-08-17T01:46:24.646Z,5.63
2023-08-17T01:49:12.324Z,5.75
2023-08-17T01:52:00.040Z,6.68
2023-08-17T01:54:48.024Z,6.20
2023-08-17T01:57:37.966Z,6.40
2023-08-17T02:00:25.968Z,5.50
2023-08-17T02:03:13.566Z,5.90
2023-08-17T02:06:01.860Z,5.82
2023-08-17T02:08:49.555Z,5.55
2023-08-17T02:11:37.229Z,5.93
2023-08-17T02:14:27.368Z,7.10
2023-08-17T02:17:17.603Z,6.25
2023-08-17T02:20:06.439Z,6.20
2023-08-17T02:22:54.102Z,5.85
2023-08-17T02:25:42.392Z,5.78
2023-08-17T02:28:30.195Z,5.75
2023-08-17T02:31:19.345Z,5.53
2023-08-17T02:34:07.405Z,5.18
2023-08-17T02:36:55.154Z,5.63
2023-08-17T02:39:43.286Z,5.00
2023-08-17T02:42:30.990Z,5.72
2023-08-17T02:45:18.929Z,5.15
2023-08-17T02:48:08.580Z,4.90
2023-08-17T02:50:56.317Z,5.45
2023-08-17T02:53:44.265Z,5.15
2023-08-17T02:56:31.936Z,6.00
2023-08-17T02:59:19.881Z,5.95
2023-08-17T03:02:07.631Z,5.40
2023-08-17T03:04:56.951Z,5.25
2023-08-17T03:07:44.660Z,5.38
2023-08-17T03:10:33.109Z,5.63
2023-08-17T03:13:20.868Z,5.60
2023-08-17T03:16:08.623Z,5.72
2023-08-17T03:18:56.406Z,6.28
2023-08-17T03:21:45.789Z,5.93
2023-08-17T03:24:33.634Z,6.05
2023-08-17T03:27:21.220Z,5.38
2023-08-17T03:30:09.558Z,5.97
2023-08-17T03:32:57.251Z,6.07
2023-08-17T03:35:44.988Z,5.65
2023-08-17T03:38:34.310Z,6.72
2023-08-17T03:41:24.616Z,7.03
2023-08-17T03:44:12.474Z,6.15
2023-08-17T03:47:00.384Z,6.95
2023-08-17T03:49:48.358Z,6.35
2023-08-17T03:52:36.191Z,6.28
2023-08-17T03:55:25.206Z,5.95
2023-08-17T03:58:13.088Z,6.88
2023-08-17T04:01:01.084Z,6.68
2023-08-17T04:03:49.048Z,6.63
2023-08-17T04:06:40.496Z,5.80
2023-08-17T04:09:28.207Z,6.57
2023-08-17T04:12:17.447Z,6.50
2023-08-17T04:15:06.297Z,5.90
2023-08-17T04:17:54.317Z,7.07
2023-08-17T04:20:42.057Z,6.60
2023-08-17T04:23:30.009Z,5.93
2023-08-17T04:26:17.712Z,5.22
2023-08-17T04:29:07.151Z,6.40
2023-08-17T04:31:55.570Z,5.43
2023-08-17T04:34:43.997Z,6.13
2023-08-17T04:37:32.016Z,5.72
2023-08-17T04:40:19.734Z,6.00
2023-08-17T04:43:07.831Z,5.40
2023-08-17T04:45:58.343Z,6.10
2023-08-17T04:48:46.568Z,6.18
2023-08-17T04:51:34.466Z,5.40
2023-08-17T04:54:22.364Z,5.75
2023-08-17T04:57:10.336Z,5.32
2023-08-17T04:59:58.038Z,5.32
2023-08-17T05:02:47.669Z,4.88
2023-08-17T05:05:36.720Z,5.47
2023-08-17T05:08:24.729Z,5.90
2023-08-17T05:11:15.716Z,5.35
2023-08-17T05:14:06.487Z,5.55
2023-08-17T05:16:54.454Z,5.25
2023-08-17T05:19:43.573Z,5.63
2023-08-17T05:22:31.341Z,5.88
2023-08-17T05:25:19.164Z,5.30
2023-08-17T05:28:07.747Z,6.13
2023-08-17T05:30:56.238Z,6.65
2023-08-17T05:33:43.946Z,6.22
2023-08-17T05:36:33.619Z,5.88
2023-08-17T05:39:22.603Z,5.60
2023-08-17T05:42:11.078Z,5.57
2023-08-17T05:44:59.381Z,6.10
2023-08-17T05:47:47.401Z,5.60
2023-08-17T05:50:35.880Z,5.47
2023-08-17T05:53:25.115Z,5.20
2023-08-17T05:56:13.047Z,5.65
2023-08-17T05:59:00.852Z,5.65
2023-08-17T06:01:48.585Z,5.47
2023-08-17T06:04:36.245Z,5.53
2023-08-17T06:07:24.234Z,5.47
2023-08-17T06:10:14.330Z,5.75
2023-08-17T06:13:02.178Z,6.60
2023-08-17T06:15:50.262Z,5.13
2023-08-17T06:18:38.515Z,5.18
2023-08-17T06:21:26.273Z,6.13
2023-08-17T06:24:14.015Z,5.60
2023-08-17T06:27:03.164Z,5.82
2023-08-17T06:29:51.226Z,4.97
2023-08-17T06:32:38.855Z,5.68
2023-08-17T06:35:27.099Z,6.18
2023-08-17T06:38:14.940Z,4.82
2023-08-17T06:41:02.746Z,5.35
2023-08-17T06:43:51.783Z,5.20
2023-08-17T06:46:39.534Z,6.25
2023-08-17T06:49:27.456Z,5.68
2023-08-17T06:52:15.184Z,6.30
2023-08-17T06:55:03.063Z,6.32
2023-08-17T06:57:52.950Z,5.80
2023-08-17T07:00:42.306Z,5.28
2023-08-17T07:03:30.224Z,5.10
2023-08-17T07:06:17.900Z,6.18
2023-08-17T07:09:06.696Z,5.15
2023-08-17T07:11:54.431Z,6.47
2023-08-17T07:14:42.345Z,4.75
2023-08-17T07:17:31.484Z,5.72
2023-08-17T07:20:19.330Z,5.60
2023-08-17T07:23:07.163Z,5.45
2023-08-17T07:25:55.086Z,5.30
2023-08-17T07:28:42.783Z,4.63
2023-08-17T07:31:30.498Z,5.20
2023-08-17T07:34:19.804Z,5.57
2023-08-17T07:37:07.460Z,5.40
2023-08-17T07:39:55.383Z,4.72
2023-08-17T07:42:43.218Z,5.10
2023-08-17T07:45:31.011Z,5.88
2023-08-17T07:48:18.685Z,6.65
2023-08-17T07:51:07.717Z,5.32
2023-08-17T07:53:55.391Z,4.95
2023-08-17T07:56:43.113Z,5.43
2023-08-17T07:59:31.135Z,6.95
2023-08-17T08:02:18.891Z,5.68
2023-08-17T08:05:07.561Z,5.03
2023-08-17T08:07:56.730Z,4.57
2023-08-17T08:10:44.724Z,4.75
2023-08-17T08:13:32.829Z,5.05
2023-08-17T08:16:20.557Z,5.88
2023-08-17T08:19:08.560Z,5.30
2023-08-17T08:21:56.185Z,5.25
2023-08-17T08:24:47.628Z,5.35
2023-08-17T08:27:35.311Z,5.82
2023-08-17T08:30:23.083Z,5.60
2023-08-17T08:33:10.867Z,6.60
2023-08-17T08:35:58.721Z,6.60
2023-08-17T08:38:46.629Z,5.60
2023-08-17T08:41:36.420Z,5.32
2023-08-17T08:44:24.650Z,6.50
2023-08-17T08:47:12.530Z,4.55
2023-08-17T08:50:03.714Z,5.60
2023-08-17T08:53:00.571Z,5.15
2023-08-17T08:55:54.325Z,5.43
2023-08-17T08:58:44.572Z,4.43
2023-08-17T09:01:33.816Z,4.70
2023-08-17T09:04:21.856Z,5.03
2023-08-17T09:07:11.157Z,5.60
2023-08-17T09:10:01.895Z,5.70
2023-08-17T09:12:50.344Z,4.07
2023-08-17T09:15:40.320Z,6.25
2023-08-17T09:18:28.367Z,4.03
2023-08-17T09:21:23.124Z,4.03
2023-08-17T09:24:11.119Z,3.70
2023-08-17T09:27:00.301Z,4.20
2023-08-17T09:29:48.317Z,4.65
2023-08-17T09:32:37.667Z,4.90
2023-08-17T09:35:27.803Z,3.97
2023-08-17T09:38:15.951Z,3.50
2023-08-17T09:41:03.717Z,3.55
2023-08-17T09:43:51.767Z,3.88
2023-08-17T09:46:39.797Z,3.88
2023-08-17T09:49:36.630Z,4.07
2023-08-17T09:52:26.091Z,3.63
2023-08-17T09:55:15.033Z,3.88
2023-08-17T09:58:03.271Z,3.92
2023-08-17T10:00:52.961Z,3.95
2023-08-17T10:03:44.437Z,4.05
2023-08-17T10:06:36.632Z,4.03
2023-08-17T10:09:27.575Z,4.50
2023-08-17T10:12:19.682Z,3.80
2023-08-17T10:15:19.292Z,3.55
2023-08-17T10:18:15.896Z,3.90
2023-08-17T10:21:06.354Z,3.95
2023-08-17T10:23:55.974Z,4.68
2023-08-17T10:26:44.681Z,3.88
2023-08-17T10:29:33.600Z,4.72
2023-08-17T10:32:24.888Z,4.18
2023-08-17T10:35:13.758Z,4.28
2023-08-17T10:38:01.865Z,3.85
2023-08-17T10:41:10.552Z,4.25
2023-08-17T10:43:59.725Z,4.43
2023-08-17T10:46:49.426Z,4.13
2023-08-17T10:49:39.656Z,3.55
2023-08-17T10:52:29.439Z,4.13
2023-08-17T10:55:17.271Z,3.90
2023-08-17T10:58:06.637Z,4.18
2023-08-17T11:00:57.045Z,4.10
2023-08-17T11:03:45.473Z,3.97
2023-08-17T11:06:35.968Z,3.92
2023-08-17T11:09:24.637Z,4.13
2023-08-17T11:12:27.828Z,3.95
2023-08-17T11:15:17.197Z,4.33
2023-08-17T11:18:09.867Z,3.97
2023-08-17T11:20:58.068Z,4.90
2023-08-17T11:23:46.241Z,3.97
2023-08-17T11:26:36.026Z,3.83
2023-08-17T11:29:25.467Z,3.70
2023-08-17T11:32:14.443Z,4.43
2023-08-17T11:35:02.368Z,3.50
2023-08-17T11:37:50.947Z,4.15
2023-08-17T11:40:38.766Z,3.95
2023-08-17T11:43:27.145Z,3.88
2023-08-17T11:46:15.072Z,4.03
2023-08-17T11:49:04.887Z,4.18
2023-08-17T11:51:53.835Z,3.90
2023-08-17T11:54:42.986Z,4.00
2023-08-17T11:57:32.251Z,4.13
2023-08-17T12:00:22.515Z,4.03
2023-08-17T12:03:10.413Z,3.88
2023-08-17T12:05:59.871Z,3.88
2023-08-17T12:08:49.629Z,4.38
2023-08-17T12:11:38.035Z,3.63
2023-08-17T12:14:29.053Z,3.95
2023-08-17T12:17:17.658Z,3.70
2023-08-17T12:20:08.826Z,3.47
2023-08-17T12:22:59.966Z,4.30
2023-08-17T12:25:47.733Z,4.10
2023-08-17T12:28:35.429Z,3.58
2023-08-17T12:31:25.123Z,8.07
2023-08-17T12:34:13.031Z,5.00
2023-08-17T12:37:00.970Z,4.07
2023-08-17T12:39:50.461Z,4.82
2023-08-17T12:42:38.117Z,4.28
2023-08-17T12:45:28.563Z,5.05
2023-08-17T12:48:16.558Z,3.65
2023-08-17T12:51:05.443Z,3.38
2023-08-17T12:53:53.446Z,3.45
2023-08-17T12:56:42.556Z,3.97
2023-08-17T12:59:30.200Z,4.82
2023-08-17T13:02:17.906Z,3.90
2023-08-17T13:05:06.056Z,3.97
2023-08-17T13:07:53.820Z,5.07
2023-08-17T13:10:42.784Z,4.32
2023-08-17T13:13:31.795Z,3.42
2023-08-17T13:16:19.820Z,4.07
2023-08-17T13:19:07.590Z,4.13
2023-08-17T13:21:55.350Z,4.93
2023-08-17T13:24:42.979Z,4.15
2023-08-17T13:27:30.805Z,3.63
2023-08-17T13:30:19.994Z,4.15
2023-08-17T13:33:08.230Z,4.72
2023-08-17T13:35:56.490Z,4.43
2023-08-17T13:38:45.358Z,4.65
2023-08-17T13:41:33.445Z,3.53
2023-08-17T13:44:21.019Z,3.65
2023-08-17T13:47:10.102Z,4.10
2023-08-17T13:49:59.408Z,4.20
2023-08-17T13:52:47.963Z,4.30
2023-08-17T13:55:36.023Z,4.55
2023-08-17T13:58:23.751Z,4.50
2023-08-17T14:01:12.538Z,4.72
2023-08-17T14:04:04.730Z,4.65
2023-08-17T14:06:53.353Z,4.88
2023-08-17T14:09:46.552Z,5.80
2023-08-17T14:12:39.195Z,8.38
2023-08-17T14:15:26.906Z,6.75
2023-08-17T14:18:14.736Z,6.32
2023-08-17T14:21:03.853Z,8.75
2023-08-17T14:23:51.773Z,8.10
2023-08-17T14:26:39.470Z,7.45
2023-08-17T14:29:27.102Z,10.48
2023-08-17T14:32:14.779Z,5.88
2023-08-17T14:35:02.482Z,6.05
2023-08-17T14:37:51.640Z,5.13
2023-08-17T14:40:42.806Z,6.03
2023-08-17T14:43:31.005Z,5.93
2023-08-17T14:46:18.743Z,8.30
2023-08-17T14:49:06.527Z,6.43
2023-08-17T14:51:56.525Z,8.82
2023-08-17T14:54:45.600Z,8.57
2023-08-17T14:57:33.555Z,8.05
2023-08-17T15:00:21.255Z,8.68
2023-08-17T15:03:09.753Z,6.75
2023-08-17T15:05:57.754Z,6.53
2023-08-17T15:08:45.572Z,5.63
2023-08-17T15:11:34.766Z,5.88
2023-08-17T15:14:22.429Z,5.78
2023-08-17T15:17:13.505Z,6.20
2023-08-17T15:20:02.023Z,6.07
2023-08-17T15:22:49.858Z,6.05
2023-08-17T15:25:37.528Z,5.65
2023-08-17T15:28:26.653Z,6.30
2023-08-17T15:31:15.026Z,5.85
2023-08-17T15:34:02.864Z,6.68
2023-08-17T15:36:50.695Z,6.30
2023-08-17T15:39:38.408Z,6.30
2023-08-17T15:42:26.550Z,5.88
2023-08-17T15:45:15.966Z,5.13
2023-08-17T15:48:03.790Z,6.30
2023-08-17T15:50:51.947Z,4.78
2023-08-17T15:53:44.356Z,5.95
2023-08-17T15:56:32.410Z,5.82
2023-08-17T15:59:20.106Z,5.85
2023-08-17T16:02:09.830Z,6.22
2023-08-17T16:04:57.468Z,5.68
2023-08-17T16:07:45.066Z,5.45
2023-08-17T16:10:35.124Z,5.82
2023-08-17T16:13:23.262Z,5.72
2023-08-17T16:16:11.273Z,5.65
2023-08-17T16:19:04.430Z,5.72
2023-08-17T16:21:52.554Z,5.35
2023-08-17T16:24:40.241Z,5.70
2023-08-17T16:27:28.191Z,5.75
2023-08-17T16:30:16.288Z,4.78
2023-08-17T16:33:05.461Z,5.90
2023-08-17T16:35:54.823Z,4.50
2023-08-17T16:38:42.512Z,5.35
2023-08-17T16:41:30.081Z,5.60
2023-08-17T16:44:17.897Z,4.68
2023-08-17T16:47:05.735Z,4.00
2023-08-17T16:49:53.488Z,5.10
2023-08-17T16:52:42.517Z,5.05
2023-08-17T16:55:30.547Z,4.80
2023-08-17T16:58:18.185Z,4.30
2023-08-17T17:01:13.975Z,4.55
2023-08-17T17:04:03.243Z,4.57
2023-08-17T17:06:51.719Z,4.32
2023-08-17T17:09:40.963Z,4.53
2023-08-17T17:12:29.047Z,4.07
2023-08-17T17:15:16.835Z,5.53
2023-08-17T17:18:04.719Z,5.00
2023-08-17T17:20:53.099Z,4.53
2023-08-17T17:23:40.865Z,5.10
2023-08-17T17:26:29.950Z,4.55
2023-08-17T17:29:17.946Z,4.18
2023-08-17T17:32:05.936Z,4.97
2023-08-17T17:34:53.789Z,4.60
2023-08-17T17:37:41.513Z,4.38
2023-08-17T17:40:29.252Z,4.43
2023-08-17T17:43:18.394Z,4.90
2023-08-17T17:46:06.020Z,4.97
2023-08-17T17:48:54.121Z,4.13
2023-08-17T17:51:41.918Z,4.30
2023-08-17T17:54:29.873Z,4.55
2023-08-17T17:57:17.584Z,4.80
2023-08-17T18:00:08.250Z,4.75
2023-08-17T18:02:55.989Z,4.35
2023-08-17T18:05:45.737Z,4.63
2023-08-17T18:08:35.090Z,5.47
2023-08-17T18:11:23.107Z,5.25
2023-08-17T18:14:11.109Z,4.85
2023-08-17T18:17:00.211Z,5.38
2023-08-17T18:19:48.071Z,4.80
2023-08-17T18:22:35.869Z,4.63
2023-08-17T18:25:23.850Z,5.05
2023-08-17T18:28:12.254Z,4.53
2023-08-17T18:31:00.119Z,5.45
2023-08-17T18:33:49.421Z,5.10
2023-08-17T18:36:37.180Z,5.53
2023-08-17T18:39:25.314Z,5.03
2023-08-17T18:42:13.146Z,5.22
2023-08-17T18:45:01.279Z,5.53
2023-08-17T18:47:48.984Z,4.63
2023-08-17T18:50:39.612Z,5.72
2023-08-17T18:53:27.453Z,5.00
2023-08-17T18:56:15.191Z,5.60
2023-08-17T18:59:03.067Z,4.97
2023-08-17T19:01:51.035Z,4.80
2023-08-17T19:04:38.908Z,5.38
2023-08-17T19:07:29.407Z,6.32
2023-08-17T19:10:17.913Z,6.43
2023-08-17T19:13:06.613Z,6.30
2023-08-17T19:15:54.346Z,5.57
2023-08-17T19:18:42.098Z,6.00
2023-08-17T19:21:29.696Z,5.45
2023-08-17T19:24:18.888Z,5.97
2023-08-17T19:27:06.730Z,6.30
2023-08-17T19:29:54.779Z,6.22
2023-08-17T19:32:42.452Z,5.40
2023-08-17T19:35:30.376Z,5.60
2023-08-17T19:38:18.123Z,4.80
2023-08-17T19:41:07.178Z,6.47
2023-08-17T19:43:54.906Z,5.30
2023-08-17T19:46:42.711Z,6.22
2023-08-17T19:49:30.693Z,5.75
2023-08-17T19:52:18.393Z,5.75
2023-08-17T19:55:07.328Z,5.88
2023-08-17T19:57:56.373Z,5.47
2023-08-17T20:00:44.075Z,5.30
2023-08-17T20:03:32.002Z,5.65
2023-08-17T20:06:19.709Z,5.85
2023-08-17T20:09:07.887Z,5.22
2023-08-17T20:11:55.590Z,5.78
2023-08-17T20:14:44.941Z,6.47
2023-08-17T20:17:32.793Z,5.82
2023-08-17T20:20:21.084Z,5.57
2023-08-17T20:23:08.744Z,7.38
2023-08-17T20:25:57.690Z,6.35
2023-08-17T20:28:45.694Z,6.22
2023-08-17T20:31:34.882Z,5.75
2023-08-17T20:34:23.110Z,6.40
2023-08-17T20:37:10.857Z,6.72
2023-08-17T20:39:59.229Z,6.95
2023-08-17T20:42:46.943Z,7.25
2023-08-17T20:45:35.180Z,6.53
2023-08-17T20:48:24.468Z,7.20
2023-08-17T20:51:12.126Z,7.13
2023-08-17T20:54:00.062Z,7.25
2023-08-17T20:56:47.691Z,6.45
2023-08-17T20:59:35.808Z,6.05
2023-08-17T21:02:23.708Z,10.43
2023-08-17T21:05:13.075Z,10.52
2023-08-17T21:08:02.602Z,11.15
2023-08-17T21:10:50.680Z,10.80
2023-08-17T21:13:39.067Z,10.82
2023-08-17T21:16:26.728Z,11.00
2023-08-17T21:19:14.617Z,10.13
2023-08-17T21:22:03.718Z,8.85
2023-08-17T21:24:51.422Z,8.32
2023-08-17T21:27:39.867Z,8.05
2023-08-17T21:30:28.726Z,8.10
2023-08-17T21:33:16.897Z,7.63
2023-08-17T21:36:05.158Z,7.30
2023-08-17T21:38:54.374Z,7.50
2023-08-17T21:41:42.136Z,7.93
2023-08-17T21:44:31.139Z,8.25
2023-08-17T21:47:18.910Z,7.95
2023-08-17T21:50:07.623Z,7.65
2023-08-17T21:52:57.874Z,7.30
2023-08-17T21:55:47.659Z,8.05
2023-08-17T21:58:35.358Z,8.05
2023-08-17T22:01:23.242Z,8.07
2023-08-17T22:04:10.931Z,7.35
2023-08-17T22:06:58.920Z,8.07
2023-08-17T22:09:46.663Z,8.05
2023-08-17T22:12:35.999Z,7.82
2023-08-17T22:15:23.830Z,7.68
2023-08-17T22:18:12.275Z,7.70
2023-08-17T22:21:00.181Z,7.45
2023-08-17T22:23:47.968Z,7.60
2023-08-17T22:26:35.876Z,7.57
2023-08-17T22:29:24.955Z,7.95
2023-08-17T22:32:12.939Z,7.43
2023-08-17T22:35:00.646Z,8.20
2023-08-17T22:37:48.475Z,7.07
2023-08-17T22:40:36.504Z,9.18
2023-08-17T22:43:24.219Z,7.28
2023-08-17T22:46:13.452Z,8.73
2023-08-17T22:49:01.154Z,8.27
2023-08-17T22:51:49.311Z,8.02
2023-08-17T22:54:37.013Z,8.75
2023-08-17T22:57:25.395Z,8.25
2023-08-17T23:00:14.488Z,8.10
2023-08-17T23:03:03.641Z,8.35
2023-08-17T23:05:51.494Z,8.10
2023-08-17T23:08:39.171Z,8.48
2023-08-17T23:11:27.050Z,7.75
2023-08-17T23:14:15.084Z,7.97
2023-08-17T23:17:03.062Z,7.80
2023-08-17T23:19:52.179Z,7.75
2023-08-17T23:22:39.839Z,7.80
2023-08-17T23:25:27.956Z,8.57
2023-08-17T23:28:15.911Z,9.43
2023-08-17T23:31:03.679Z,8.85
2023-08-17T23:33:51.400Z,9.02
2023-08-17T23:36:40.800Z,9.60
2023-08-17T23:39:28.438Z,8.13
2023-08-17T23:42:16.104Z,8.70
2023-08-17T23:45:03.976Z,8.82
2023-08-17T23:47:51.678Z,8.18
2023-08-17T23:50:39.359Z,8.85
2023-08-17T23:53:28.363Z,8.93
2023-08-17T23:56:16.247Z,9.30
2023-08-17T23:59:04.005Z,9.25
